Terminal Aerodrome Forecast
Issued by NWS Rapid City, SD

Home | Current Version | Previous Version | Text Only | Print | Product List | Glossary Off
Versions: 1 2 3 4 5 6 7 8 9 10 11 12 13 14 15 16 17 18 19 20 21 22 23 24 25 26 27 28 29 30 31 32 33 34

321
FTUS43 KUNR 111729
TAFRAP
TAF
KRAP 111729Z 1118/1218 34025G35KT P6SM BKN100
     FM120400 02006KT 1/2SM FZFG VV002
     FM121700 13010KT 4SM BR OVC004=

USA.gov is the U.S. government's official web portal to all federal, state and local government web resources and services.